Time;durP1;ratioP1;P1;durP2;ratioP2;P2;SDS_P1;SDS_P2;PMS_P1;PMS_P2;Temp;Humidity;BMP_temperature;BMP_pressure;BME280_temperature;BME280_humidity;BME280_pressure;Samples;Min_cycle;Max_cycle;Signal;HPM_P1;HPM_P2
2022/07/20 00:01:34;;;;;;;6.30;5.33;;;20.60;93.60;;;;;;5053637;28;20495;-67
2022/07/20 00:04:01;;;;;;;7.00;5.90;;;20.60;93.70;;;;;;5053518;28;20455;-68
2022/07/20 00:06:28;;;;;;;6.60;6.00;;;20.50;93.70;;;;;;5053683;28;20475;-69
2022/07/20 00:11:39;;;;;;;6.43;5.83;;;20.40;93.90;;;;;;5053426;28;20494;-68
2022/07/20 00:14:07;;;;;;;7.20;6.17;;;20.40;94.20;;;;;;5053454;28;20464;-68
2022/07/20 00:16:35;;;;;;;6.63;6.03;;;20.40;94.20;;;;;;5053275;28;20491;-68
2022/07/20 00:19:03;;;;;;;7.73;5.73;;;20.40;94.30;;;;;;5053184;28;20451;-69
2022/07/20 00:21:30;;;;;;;9.13;5.83;;;20.40;94.30;;;;;;5053019;28;20463;-68
2022/07/20 00:23:57;;;;;;;8.40;6.47;;;20.30;94.30;;;;;;5053335;28;20464;-68
2022/07/20 00:26:24;;;;;;;7.27;5.20;;;20.20;94.40;;;;;;5053123;28;20482;-66
2022/07/20 00:28:51;;;;;;;7.67;6.40;;;20.20;94.50;;;;;;5053139;28;20468;-68
2022/07/20 00:31:20;;;;;;;7.10;6.23;;;20.20;94.80;;;;;;5052566;28;20491;-66
2022/07/20 00:33:48;;;;;;;6.60;6.00;;;20.20;94.80;;;;;;5053160;28;20471;-68
2022/07/20 00:36:15;;;;;;;10.70;5.20;;;20.20;94.80;;;;;;5052762;28;20496;-68
2022/07/20 00:38:42;;;;;;;6.30;5.68;;;20.10;94.90;;;;;;5053058;28;20456;-69
2022/07/20 00:41:09;;;;;;;6.80;5.63;;;20.10;95.00;;;;;;5052444;28;20205;-68
2022/07/20 00:43:56;;;;;;;6.10;5.60;;;20.10;95.10;;;;;;5052926;28;20542;-69
2022/07/20 00:46:25;;;;;;;9.47;6.00;;;20.00;95.20;;;;;;5052683;28;20220;-68
2022/07/20 00:48:52;;;;;;;9.20;6.53;;;20.00;95.10;;;;;;5052878;28;20467;-69
2022/07/20 00:51:19;;;;;;;7.07;6.13;;;20.00;95.20;;;;;;5051877;28;20456;-68
2022/07/20 00:53:46;;;;;;;6.90;6.20;;;20.00;95.00;;;;;;5052735;28;20460;-68
2022/07/20 00:56:13;;;;;;;6.60;5.77;;;19.90;95.20;;;;;;5052245;28;21094;-68
2022/07/20 00:58:40;;;;;;;6.60;5.93;;;19.90;95.40;;;;;;5052463;28;20491;-68
2022/07/20 01:01:07;;;;;;;7.27;6.17;;;19.80;95.40;;;;;;5052079;28;20459;-68
2022/07/20 01:03:35;;;;;;;7.03;5.80;;;19.80;95.40;;;;;;5052173;28;20997;-66
2022/07/20 01:06:02;;;;;;;6.30;5.70;;;19.80;95.40;;;;;;5052161;28;20482;-67
2022/07/20 01:08:29;;;;;;;6.93;5.73;;;19.80;95.20;;;;;;5051827;28;20847;-68
2022/07/20 01:10:57;;;;;;;6.47;5.55;;;19.70;95.30;;;;;;5051854;28;20460;-67
2022/07/20 01:13:24;;;;;;;8.05;5.80;;;19.70;95.30;;;;;;5051964;28;20568;-69
2022/07/20 01:15:51;;;;;;;6.50;5.50;;;19.70;95.30;;;;;;5052023;28;20227;-68
2022/07/20 01:18:18;;;;;;;7.35;6.00;;;19.70;95.60;;;;;;5051779;28;20460;-68
2022/07/20 01:20:48;;;;;;;6.47;5.67;;;19.60;95.70;;;;;;5051595;28;20225;-67
2022/07/20 01:23:17;;;;;;;6.63;5.87;;;19.60;95.70;;;;;;5051994;28;20455;-67
2022/07/20 01:25:44;;;;;;;7.10;5.60;;;19.60;95.70;;;;;;5052156;28;20558;-68
2022/07/20 01:28:12;;;;;;;7.00;5.40;;;19.60;95.70;;;;;;5051822;28;20844;-67
2022/07/20 01:30:40;;;;;;;7.33;5.90;;;19.60;95.70;;;;;;5051285;28;20824;-69
2022/07/20 01:33:07;;;;;;;6.38;5.80;;;19.50;95.70;;;;;;5051876;28;20471;-69
2022/07/20 01:35:34;;;;;;;6.60;5.53;;;19.50;95.70;;;;;;5051175;28;20233;-66
2022/07/20 01:38:01;;;;;;;7.40;5.53;;;19.50;95.90;;;;;;5051998;28;20461;-68
2022/07/20 01:40:29;;;;;;;7.27;5.13;;;19.50;95.90;;;;;;5051017;28;20463;-68
2022/07/20 01:42:56;;;;;;;6.00;5.40;;;19.50;96.10;;;;;;5051759;28;20467;-69
2022/07/20 01:45:23;;;;;;;6.87;5.90;;;19.50;96.30;;;;;;5051537;28;20489;-68
2022/07/20 01:47:49;;;;;;;7.43;5.57;;;19.40;96.20;;;;;;5051778;28;20486;-68
2022/07/20 01:50:16;;;;;;;7.30;5.80;;;19.40;96.30;;;;;;5050873;28;20839;-68
2022/07/20 01:52:43;;;;;;;7.87;5.70;;;19.40;96.30;;;;;;5051571;28;20974;-67
2022/07/20 01:55:10;;;;;;;7.47;5.10;;;19.30;96.30;;;;;;5051466;28;20484;-68
2022/07/20 01:57:39;;;;;;;5.87;5.27;;;19.30;96.30;;;;;;5051452;28;20490;-68
2022/07/20 02:00:07;;;;;;;5.97;5.47;;;19.30;96.50;;;;;;5050855;28;20482;-66
2022/07/20 02:02:34;;;;;;;6.70;5.47;;;19.30;96.60;;;;;;5050871;28;20497;-67
2022/07/20 02:05:01;;;;;;;6.00;5.40;;;19.20;96.70;;;;;;5051085;28;20480;-68
2022/07/20 02:07:27;;;;;;;5.63;5.07;;;19.20;96.90;;;;;;5050904;28;20466;-68
2022/07/20 02:09:54;;;;;;;7.10;5.70;;;19.20;96.90;;;;;;5050579;28;20460;-69
2022/07/20 02:12:21;;;;;;;5.83;5.30;;;19.20;97.00;;;;;;5050717;28;20477;-67
2022/07/20 02:14:49;;;;;;;6.50;5.77;;;19.20;96.90;;;;;;5051132;28;20483;-68
2022/07/20 02:17:16;;;;;;;5.70;5.10;;;19.10;97.00;;;;;;5050884;28;20479;-68
2022/07/20 02:19:43;;;;;;;6.50;5.90;;;19.10;97.00;;;;;;5050552;28;20568;-68
2022/07/20 02:22:09;;;;;;;7.60;6.10;;;19.10;97.00;;;;;;5050553;28;20469;-68
2022/07/20 02:24:36;;;;;;;7.10;5.10;;;19.10;96.90;;;;;;5050986;28;20488;-68
2022/07/20 02:27:03;;;;;;;6.00;5.40;;;19.10;97.00;;;;;;5050921;28;20462;-68
2022/07/20 02:29:30;;;;;;;5.93;5.33;;;19.00;96.90;;;;;;5049816;28;20461;-69
2022/07/20 02:31:58;;;;;;;6.83;5.63;;;19.00;97.10;;;;;;5050907;28;20835;-68
2022/07/20 02:34:25;;;;;;;6.35;5.72;;;19.00;97.40;;;;;;5050488;28;20459;-68
2022/07/20 02:36:52;;;;;;;6.03;5.10;;;18.90;97.40;;;;;;5050874;28;20221;-68
2022/07/20 02:39:18;;;;;;;6.30;5.70;;;18.90;97.80;;;;;;5049831;28;20466;-68
2022/07/20 02:41:45;;;;;;;6.17;5.57;;;18.90;97.50;;;;;;5050765;28;20468;-67
2022/07/20 02:44:12;;;;;;;6.70;5.50;;;18.90;97.60;;;;;;5050344;28;20836;-68
2022/07/20 02:46:39;;;;;;;6.50;5.37;;;18.80;97.50;;;;;;5050486;28;20479;-67
2022/07/20 02:49:07;;;;;;;8.67;6.33;;;18.80;97.50;;;;;;5050528;28;20485;-66
2022/07/20 02:51:34;;;;;;;6.10;5.30;;;18.70;97.60;;;;;;5050301;28;20494;-69
2022/07/20 02:54:01;;;;;;;6.50;5.10;;;18.70;97.90;;;;;;5050678;28;20486;-69
2022/07/20 02:56:28;;;;;;;6.90;5.63;;;18.70;97.80;;;;;;5050177;28;20493;-68
2022/07/20 02:58:55;;;;;;;5.23;4.73;;;18.70;97.90;;;;;;5050372;28;20460;-68
2022/07/20 03:01:22;;;;;;;7.67;5.77;;;18.70;97.80;;;;;;5049791;28;20460;-69
2022/07/20 03:03:48;;;;;;;6.90;6.20;;;18.60;98.00;;;;;;5050584;28;20460;-68
2022/07/20 03:06:16;;;;;;;7.03;5.27;;;18.60;98.00;;;;;;5050223;28;20516;-68
2022/07/20 03:08:43;;;;;;;8.67;5.87;;;18.60;98.10;;;;;;5079414;23;20493;-92
2022/07/20 03:11:10;;;;;;;5.90;5.40;;;18.60;98.20;;;;;;5080079;28;20430;-92
2022/07/20 03:13:37;;;;;;;6.30;5.70;;;18.60;98.30;;;;;;5080551;22;21029;-71
2022/07/20 03:16:05;;;;;;;8.30;5.40;;;18.50;98.30;;;;;;5050104;28;20478;-71
2022/07/20 03:18:32;;;;;;;6.70;6.00;;;18.50;98.40;;;;;;5050098;28;20466;-70
2022/07/20 03:20:59;;;;;;;6.03;5.43;;;18.50;98.30;;;;;;5049739;28;20468;-71
2022/07/20 03:23:27;;;;;;;5.80;5.30;;;18.40;98.50;;;;;;5050145;28;20808;-71
2022/07/20 03:25:54;;;;;;;6.20;5.50;;;18.40;98.60;;;;;;5050327;28;20482;-70
2022/07/20 03:28:20;;;;;;;7.80;5.20;;;18.40;98.70;;;;;;5050229;28;20198;-70
2022/07/20 03:30:47;;;;;;;6.07;5.20;;;18.30;98.80;;;;;;5049596;28;20984;-70
2022/07/20 03:33:14;;;;;;;6.35;5.55;;;18.30;98.80;;;;;;5049920;28;20981;-70
2022/07/20 03:35:41;;;;;;;7.93;5.90;;;18.30;98.90;;;;;;5052671;28;20225;-70
2022/07/20 03:38:08;;;;;;;5.90;5.30;;;18.20;98.90;;;;;;5053449;28;20902;-71
2022/07/20 03:40:36;;;;;;;6.30;5.27;;;18.20;98.80;;;;;;5052687;28;20495;-70
2022/07/20 03:43:03;;;;;;;5.80;5.10;;;18.20;98.90;;;;;;5050850;28;20456;-70
2022/07/20 03:45:30;;;;;;;6.07;5.50;;;18.20;99.10;;;;;;5053094;28;20468;-70
2022/07/20 03:47:57;;;;;;;6.00;4.90;;;18.20;99.40;;;;;;5052654;28;20464;-70
2022/07/20 03:50:24;;;;;;;5.20;4.70;;;18.20;99.40;;;;;;5052690;28;20922;-70
2022/07/20 03:52:51;;;;;;;6.30;5.10;;;18.10;99.30;;;;;;5052764;28;20508;-69
2022/07/20 03:55:18;;;;;;;7.70;5.67;;;18.20;99.50;;;;;;5052131;28;20479;-70
2022/07/20 03:57:46;;;;;;;7.32;5.80;;;18.10;99.50;;;;;;5051432;28;20463;-70
2022/07/20 04:00:14;;;;;;;6.00;5.30;;;18.10;99.60;;;;;;5052079;28;20208;-70
2022/07/20 04:02:41;;;;;;;8.03;6.07;;;18.10;99.70;;;;;;5051562;28;20232;-70
2022/07/20 04:05:09;;;;;;;8.70;6.50;;;18.10;99.90;;;;;;5050588;28;20485;-70
2022/07/20 04:07:36;;;;;;;8.43;5.73;;;18.10;99.90;;;;;;5050700;28;20455;-70
2022/07/20 04:10:03;;;;;;;6.10;5.07;;;18.00;99.90;;;;;;5050379;28;20458;-70
2022/07/20 04:12:30;;;;;;;6.60;5.47;;;18.00;99.90;;;;;;5050494;28;20470;-70
2022/07/20 04:14:58;;;;;;;5.80;5.20;;;18.00;99.90;;;;;;5050493;28;20998;-71
2022/07/20 04:17:25;;;;;;;5.70;5.20;;;18.00;99.90;;;;;;5051359;28;20482;-70
2022/07/20 04:19:53;;;;;;;5.40;4.77;;;18.00;99.90;;;;;;5049793;28;20495;-69
2022/07/20 04:22:20;;;;;;;5.80;4.93;;;18.00;99.90;;;;;;5053030;28;20465;-69
2022/07/20 04:24:47;;;;;;;7.30;5.50;;;18.00;99.90;;;;;;5052589;28;20472;-72
2022/07/20 04:27:14;;;;;;;6.73;5.30;;;18.00;99.90;;;;;;5052396;28;20554;-70
2022/07/20 04:29:41;;;;;;;6.87;5.30;;;18.00;99.90;;;;;;5051605;28;20459;-71
2022/07/20 04:32:09;;;;;;;6.80;5.43;;;18.00;99.90;;;;;;5052872;28;20457;-72
2022/07/20 04:34:36;;;;;;;5.17;4.60;;;18.00;99.90;;;;;;5051925;28;20551;-71
2022/07/20 04:37:03;;;;;;;8.60;5.43;;;18.00;99.90;;;;;;5052062;28;20487;-72
2022/07/20 04:39:30;;;;;;;5.68;5.07;;;18.00;99.90;;;;;;5051370;28;20638;-72
2022/07/20 04:41:57;;;;;;;6.33;5.20;;;18.00;99.90;;;;;;5052593;28;20227;-72
2022/07/20 04:44:23;;;;;;;5.30;4.80;;;18.10;99.90;;;;;;5053498;28;20464;-70
2022/07/20 04:46:50;;;;;;;5.83;5.03;;;18.10;99.90;;;;;;5053677;28;21038;-71
2022/07/20 04:49:18;;;;;;;7.60;5.70;;;18.20;99.90;;;;;;5052356;28;20550;-71
2022/07/20 04:51:45;;;;;;;8.40;5.00;;;18.20;99.90;;;;;;5050819;28;20460;-72
2022/07/20 04:54:12;;;;;;;6.30;4.93;;;18.20;99.90;;;;;;5050523;28;20464;-72
2022/07/20 04:56:39;;;;;;;8.60;5.60;;;18.30;99.90;;;;;;5050626;28;20483;-71
2022/07/20 04:59:06;;;;;;;6.33;5.20;;;18.30;99.90;;;;;;5051540;28;20212;-71
2022/07/20 05:01:32;;;;;;;6.57;5.97;;;18.40;99.90;;;;;;5052428;28;20981;-71
2022/07/20 05:03:59;;;;;;;6.73;5.70;;;18.40;99.90;;;;;;5052727;28;21006;-72
2022/07/20 05:06:27;;;;;;;6.27;5.67;;;18.40;99.90;;;;;;5052522;28;20856;-71
2022/07/20 05:08:54;;;;;;;6.00;5.10;;;18.50;99.90;;;;;;5052494;28;20452;-71
2022/07/20 05:11:21;;;;;;;6.10;5.20;;;18.50;99.90;;;;;;5052201;28;20491;-71
2022/07/20 05:13:48;;;;;;;6.57;5.90;;;18.60;99.90;;;;;;5052057;28;20259;-71
2022/07/20 05:16:15;;;;;;;8.90;5.03;;;18.60;99.90;;;;;;5052697;28;20516;-73
2022/07/20 05:18:42;;;;;;;5.97;5.00;;;18.60;99.90;;;;;;5052429;28;20884;-72
2022/07/20 05:21:09;;;;;;;6.73;5.40;;;18.70;99.90;;;;;;5052455;28;20460;-72
2022/07/20 05:23:38;;;;;;;5.70;5.20;;;18.80;99.90;;;;;;5052284;28;20455;-72
2022/07/20 05:26:05;;;;;;;6.07;5.23;;;18.90;99.90;;;;;;5052256;28;20483;-70
2022/07/20 05:28:32;;;;;;;6.10;5.30;;;19.00;99.90;;;;;;5052073;28;20494;-70
2022/07/20 05:30:59;;;;;;;6.70;6.00;;;19.00;99.90;;;;;;5051638;28;21018;-70
2022/07/20 05:33:26;;;;;;;6.37;5.83;;;19.10;99.90;;;;;;5052165;28;20465;-72
2022/07/20 05:35:53;;;;;;;6.72;5.30;;;19.20;99.90;;;;;;5051596;28;20476;-71
2022/07/20 05:38:20;;;;;;;6.20;5.60;;;19.30;99.90;;;;;;5052133;28;20235;-70
2022/07/20 05:40:49;;;;;;;6.63;5.23;;;19.40;99.90;;;;;;5051460;28;20284;-69
2022/07/20 05:43:16;;;;;;;10.30;5.75;;;19.50;99.90;;;;;;5052230;28;20840;-71
2022/07/20 05:45:43;;;;;;;8.70;5.90;;;19.60;99.90;;;;;;5051661;28;20222;-78
2022/07/20 05:48:11;;;;;;;6.60;5.60;;;19.70;99.90;;;;;;5048966;28;20462;-73
2022/07/20 05:50:41;;;;;;;6.90;5.63;;;19.90;99.90;;;;;;5049101;28;20548;-68
2022/07/20 05:53:10;;;;;;;7.15;5.93;;;20.20;99.90;;;;;;5050777;28;20471;-71
2022/07/20 05:55:38;;;;;;;6.43;5.68;;;20.30;99.90;;;;;;5049524;28;20224;-71
2022/07/20 05:58:09;;;;;;;6.27;5.67;;;20.50;99.90;;;;;;5049584;28;20491;-74
2022/07/20 06:00:37;;;;;;;7.70;5.77;;;20.60;99.40;;;;;;5049066;28;20467;-72
2022/07/20 06:03:05;;;;;;;6.50;5.90;;;20.90;99.30;;;;;;5051596;28;20471;-70
2022/07/20 06:05:32;;;;;;;7.77;6.57;;;21.00;99.60;;;;;;5050834;28;20487;-72
2022/07/20 06:08:01;;;;;;;7.93;5.70;;;21.10;99.30;;;;;;5049830;28;20552;-70
2022/07/20 06:10:28;;;;;;;6.53;5.97;;;21.20;99.30;;;;;;5050737;28;20510;-70
2022/07/20 06:12:55;;;;;;;6.53;5.83;;;21.30;99.10;;;;;;5050540;28;20482;-70
2022/07/20 06:15:24;;;;;;;7.00;6.00;;;21.50;99.90;;;;;;5050629;28;20478;-70
2022/07/20 06:17:52;;;;;;;7.33;6.40;;;21.60;99.90;;;;;;5050493;28;20243;-70
2022/07/20 06:20:19;;;;;;;7.70;6.10;;;21.70;99.90;;;;;;5049445;28;20455;-70
2022/07/20 06:22:46;;;;;;;7.50;6.70;;;21.80;99.50;;;;;;5049929;28;20462;-70
2022/07/20 06:25:14;;;;;;;8.47;6.20;;;22.00;99.90;;;;;;5050093;28;20228;-76
2022/07/20 06:27:42;;;;;;;7.37;6.10;;;22.10;99.90;;;;;;5050919;28;20463;-69
2022/07/20 06:30:11;;;;;;;6.23;5.63;;;22.30;99.90;;;;;;5050204;28;20458;-73
2022/07/20 06:32:39;;;;;;;6.60;6.00;;;22.40;99.90;;;;;;5050299;28;20468;-71
2022/07/20 06:35:07;;;;;;;7.00;6.40;;;22.50;99.90;;;;;;5050877;28;20494;-71
2022/07/20 06:37:34;;;;;;;6.63;5.83;;;22.60;99.30;;;;;;5048351;28;20222;-70
2022/07/20 06:40:01;;;;;;;8.20;6.77;;;22.70;98.60;;;;;;5049959;28;20459;-71
2022/07/20 06:42:27;;;;;;;6.50;5.90;;;22.80;98.10;;;;;;5049870;28;20459;-72
2022/07/20 06:44:54;;;;;;;10.70;6.60;;;22.80;97.80;;;;;;5047952;28;20850;-70
2022/07/20 06:47:21;;;;;;;8.80;6.20;;;23.10;97.50;;;;;;5050280;28;20472;-69
2022/07/20 06:49:49;;;;;;;7.17;6.47;;;23.30;95.90;;;;;;5089905;22;20871;-71
2022/07/20 06:52:16;;;;;;;7.17;6.47;;;23.50;96.70;;;;;;5051408;28;20954;-70
2022/07/20 06:54:43;;;;;;;8.30;6.37;;;23.70;96.90;;;;;;5049602;28;20458;-71
2022/07/20 06:57:10;;;;;;;11.23;6.25;;;23.80;95.80;;;;;;5050135;28;20455;-70
2022/07/20 06:59:38;;;;;;;7.20;6.50;;;23.90;96.00;;;;;;5049302;28;20210;-70
2022/07/20 07:02:05;;;;;;;7.77;6.97;;;24.10;95.10;;;;;;5050548;28;20509;-70
2022/07/20 07:04:31;;;;;;;9.85;7.00;;;24.30;94.70;;;;;;5050292;28;20561;-70
2022/07/20 07:07:01;;;;;;;8.47;6.67;;;24.40;94.20;;;;;;5049687;28;20209;-70
2022/07/20 07:09:27;;;;;;;7.07;6.20;;;24.50;94.40;;;;;;5052162;28;20451;-71
2022/07/20 07:11:54;;;;;;;7.77;6.63;;;24.60;94.70;;;;;;5053630;28;20204;-71
2022/07/20 07:14:21;;;;;;;8.07;5.97;;;24.70;95.10;;;;;;5054171;28;20894;-74
2022/07/20 07:16:47;;;;;;;8.20;7.05;;;24.80;94.70;;;;;;5053815;28;20479;-69
2022/07/20 07:19:14;;;;;;;7.50;6.87;;;24.90;94.50;;;;;;5053474;28;20313;-70
2022/07/20 07:21:41;;;;;;;6.07;5.47;;;25.10;94.00;;;;;;5053377;28;20487;-72
2022/07/20 07:24:09;;;;;;;7.17;6.00;;;25.20;93.60;;;;;;5053866;28;21135;-70
2022/07/20 07:26:36;;;;;;;6.73;5.73;;;25.40;94.20;;;;;;5053827;28;20479;-71
2022/07/20 07:29:03;;;;;;;7.47;5.93;;;25.60;92.90;;;;;;5053660;28;20455;-70
2022/07/20 07:31:29;;;;;;;7.47;6.80;;;25.70;92.10;;;;;;5054025;28;20224;-71
2022/07/20 07:33:56;;;;;;;7.53;6.10;;;25.80;91.40;;;;;;5057980;28;20196;-77
2022/07/20 07:36:23;;;;;;;6.80;6.10;;;26.00;92.20;;;;;;5073634;28;20845;-74
2022/07/20 07:38:49;;;;;;;9.43;6.93;;;26.20;91.90;;;;;;5073767;28;20490;-74
2022/07/20 07:41:17;;;;;;;7.10;6.40;;;26.30;91.00;;;;;;5073671;28;20879;-73
2022/07/20 07:43:44;;;;;;;8.00;6.77;;;26.40;90.90;;;;;;5073791;28;20463;-75
2022/07/20 07:46:11;;;;;;;7.73;6.87;;;26.60;91.70;;;;;;5073576;28;20479;-73
2022/07/20 07:48:38;;;;;;;6.67;6.07;;;26.60;91.10;;;;;;5072482;28;20467;-73
2022/07/20 07:51:05;;;;;;;7.90;6.60;;;26.70;91.10;;;;;;5072865;28;20828;-73
2022/07/20 07:53:31;;;;;;;8.40;7.30;;;26.70;90.70;;;;;;5073700;28;20651;-73
2022/07/20 07:55:58;;;;;;;6.85;6.15;;;26.80;90.90;;;;;;5073597;28;20479;-71
2022/07/20 07:58:26;;;;;;;7.53;6.43;;;26.80;90.90;;;;;;5073234;28;20350;-74
2022/07/20 08:00:53;;;;;;;9.10;6.68;;;26.80;91.70;;;;;;5071345;28;20457;-73
2022/07/20 08:03:20;;;;;;;7.40;6.43;;;27.00;90.90;;;;;;5073620;28;20201;-74
2022/07/20 08:05:46;;;;;;;6.77;6.13;;;27.10;90.30;;;;;;5057148;28;20485;-74
2022/07/20 08:08:16;;;;;;;6.97;6.10;;;27.20;90.40;;;;;;5053646;28;20843;-72
2022/07/20 08:10:44;;;;;;;7.50;5.90;;;27.30;90.90;;;;;;5052654;28;20468;-75
2022/07/20 08:13:11;;;;;;;6.67;6.00;;;27.40;90.90;;;;;;5053449;28;20459;-75
2022/07/20 08:15:39;;;;;;;8.03;6.47;;;27.40;91.50;;;;;;5052774;28;20529;-73
2022/07/20 08:18:07;;;;;;;7.28;6.57;;;27.60;90.30;;;;;;5053614;28;20494;-76
2022/07/20 08:20:34;;;;;;;8.57;6.40;;;27.70;90.20;;;;;;5052899;28;20202;-74
2022/07/20 08:23:00;;;;;;;10.83;6.47;;;27.80;88.90;;;;;;5052916;28;20465;-75
2022/07/20 08:25:27;;;;;;;6.30;5.47;;;27.90;89.40;;;;;;5053025;28;20488;-71
2022/07/20 08:27:54;;;;;;;6.30;5.70;;;27.90;90.00;;;;;;5052568;28;20470;-73
2022/07/20 08:30:21;;;;;;;6.37;5.67;;;28.00;88.30;;;;;;5052865;28;20460;-72
2022/07/20 08:32:49;;;;;;;5.97;5.47;;;28.10;89.40;;;;;;5052392;28;20459;-71
2022/07/20 08:35:16;;;;;;;6.50;5.90;;;28.20;90.10;;;;;;5053490;28;20484;-72
2022/07/20 08:37:42;;;;;;;8.10;6.53;;;28.40;89.80;;;;;;5052809;28;20547;-70
2022/07/20 08:40:10;;;;;;;6.43;5.82;;;28.50;89.80;;;;;;5052387;28;20467;-76
2022/07/20 08:42:39;;;;;;;7.27;6.40;;;28.60;87.00;;;;;;5053296;28;20206;-76
2022/07/20 08:45:07;;;;;;;6.87;6.30;;;28.70;88.60;;;;;;5052708;28;20480;-76
2022/07/20 08:47:38;;;;;;;7.37;5.80;;;28.80;87.70;;;;;;5052930;28;20468;-76
2022/07/20 08:50:07;;;;;;;6.30;5.77;;;28.90;89.50;;;;;;5051769;28;20467;-75
2022/07/20 08:52:34;;;;;;;6.83;6.13;;;29.00;90.40;;;;;;5052727;28;20463;-72
2022/07/20 08:55:01;;;;;;;8.80;6.43;;;29.20;88.50;;;;;;5052247;28;20483;-71
2022/07/20 08:57:27;;;;;;;9.83;6.63;;;29.30;87.70;;;;;;5052039;28;20661;-74
2022/07/20 08:59:54;;;;;;;6.80;6.10;;;29.40;90.00;;;;;;5051535;28;20503;-73
2022/07/20 09:02:21;;;;;;;6.43;5.73;;;29.60;89.50;;;;;;5052193;28;20850;-73
2022/07/20 09:04:53;;;;;;;6.32;5.82;;;29.70;90.30;;;;;;5052308;28;20487;-71
2022/07/20 09:07:38;;;;;;;6.23;5.73;;;29.80;86.40;;;;;;5052087;28;20213;-72
2022/07/20 09:10:07;;;;;;;6.97;6.37;;;29.90;84.60;;;;;;5082753;22;20499;-89
2022/07/20 09:12:50;;;;;;;7.10;5.67;;;30.00;88.10;;;;;;5054846;28;20449;-89
2022/07/20 09:15:26;;;;;;;7.33;5.70;;;30.10;88.60;;;;;;5057167;28;20468;-89
2022/07/20 09:18:08;;;;;;;6.50;5.90;;;30.20;86.70;;;;;;5055401;28;20517;-93
2022/07/20 09:20:36;;;;;;;7.80;6.50;;;30.30;84.20;;;;;;5054671;28;20483;-91
2022/07/20 09:23:07;;;;;;;6.88;6.28;;;30.40;85.40;;;;;;5052787;28;20455;-89
2022/07/20 09:25:34;;;;;;;7.23;6.50;;;30.40;87.40;;;;;;5053694;28;20201;-89
2022/07/20 09:28:01;;;;;;;6.27;5.67;;;30.50;87.80;;;;;;5053803;28;20469;-89
2022/07/20 09:30:28;;;;;;;6.03;5.00;;;30.60;85.70;;;;;;5052383;28;20495;-90
2022/07/20 09:32:58;;;;;;;6.17;5.40;;;30.80;87.50;;;;;;5052040;28;20468;-89
2022/07/20 09:35:28;;;;;;;7.83;5.80;;;31.00;87.20;;;;;;5055100;28;20456;-89
2022/07/20 09:37:57;;;;;;;6.85;5.93;;;31.20;88.30;;;;;;5055797;28;20470;-90
2022/07/20 09:40:25;;;;;;;7.90;6.47;;;31.40;85.40;;;;;;5051550;28;20732;-89
2022/07/20 09:42:52;;;;;;;6.63;6.03;;;31.50;85.90;;;;;;5053520;28;20518;-89
2022/07/20 09:45:30;;;;;;;8.23;6.37;;;31.60;83.40;;;;;;5054838;28;20483;-89
2022/07/20 09:48:10;;;;;;;7.03;6.23;;;31.70;83.90;;;;;;5053344;28;20501;-90
2022/07/20 09:50:40;;;;;;;6.83;6.30;;;31.80;88.00;;;;;;5053763;28;20488;-89
2022/07/20 09:53:08;;;;;;;10.53;6.27;;;31.80;79.60;;;;;;5052923;28;20460;-90
2022/07/20 09:55:38;;;;;;;7.63;6.30;;;31.90;84.50;;;;;;5051527;28;21032;-89
2022/07/20 09:58:05;;;;;;;7.13;6.37;;;32.00;85.40;;;;;;5053126;28;20475;-89
2022/07/20 10:00:35;;;;;;;6.50;5.90;;;32.10;83.50;;;;;;5051597;28;20492;-89
2022/07/20 10:03:04;;;;;;;9.00;5.95;;;32.30;83.80;;;;;;5051501;28;20466;-89
2022/07/20 10:05:34;;;;;;;7.83;7.10;;;32.50;81.00;;;;;;5050610;28;20201;-88
2022/07/20 10:08:05;;;;;;;7.23;5.50;;;32.60;82.90;;;;;;5051706;28;20468;-88
2022/07/20 10:10:33;;;;;;;6.30;5.30;;;32.80;79.20;;;;;;5051221;28;20484;-89
2022/07/20 10:13:01;;;;;;;5.90;5.27;;;32.90;78.40;;;;;;5051106;28;20560;-89
2022/07/20 10:15:42;;;;;;;5.77;5.20;;;33.00;80.20;;;;;;5052822;28;20463;-89
2022/07/20 10:18:11;;;;;;;5.90;5.40;;;33.10;80.90;;;;;;5051549;28;20550;-89
2022/07/20 10:20:38;;;;;;;7.97;5.67;;;33.10;80.20;;;;;;5050434;28;21016;-88
2022/07/20 10:23:31;;;;;;;5.97;5.33;;;33.20;78.30;;;;;;5050536;28;20460;-89
2022/07/20 10:25:59;;;;;;;7.43;5.37;;;33.20;81.00;;;;;;5029742;28;20464;-89
2022/07/20 10:28:36;;;;;;;7.23;5.53;;;33.40;81.60;;;;;;5052229;28;20464;-88
2022/07/20 10:31:08;;;;;;;7.20;5.70;;;33.50;78.40;;;;;;5051396;28;20452;-88
2022/07/20 10:33:37;;;;;;;7.53;5.20;;;33.50;77.50;;;;;;5051742;28;20971;-88
2022/07/20 10:38:57;;;;;;;5.57;5.10;;;33.60;78.60;;;;;;5051868;28;20484;-88
2022/07/20 10:41:33;;;;;;;7.47;5.50;;;33.70;76.40;;;;;;5064712;28;20475;-88
2022/07/20 10:44:30;;;;;;;6.63;5.43;;;33.80;78.70;;;;;;5066163;28;20562;-88
2022/07/20 10:47:03;;;;;;;6.57;5.97;;;33.80;76.20;;;;;;5066271;28;20867;-88
2022/07/20 10:50:02;;;;;;;6.20;5.37;;;33.90;75.60;;;;;;5052822;28;20252;-89
2022/07/20 10:52:32;;;;;;;8.13;5.53;;;33.90;76.80;;;;;;5044904;28;20885;-90
2022/07/20 10:55:00;;;;;;;6.40;5.80;;;34.00;79.70;;;;;;5050244;28;20540;-89
2022/07/20 10:57:27;;;;;;;8.80;5.53;;;34.10;79.60;;;;;;5050803;28;20877;-88
2022/07/20 11:00:05;;;;;;;6.43;5.80;;;34.20;78.90;;;;;;5049786;28;20890;-89
2022/07/20 11:02:33;;;;;;;6.23;5.60;;;34.20;78.20;;;;;;5051010;28;20965;-89
2022/07/20 11:05:00;;;;;;;5.87;5.33;;;34.30;77.10;;;;;;5050801;28;20491;-89
2022/07/20 11:07:32;;;;;;;6.27;5.67;;;34.40;78.60;;;;;;5051759;28;20503;-88
2022/07/20 11:09:59;;;;;;;7.00;5.53;;;34.40;80.20;;;;;;5051096;28;20503;-88
2022/07/20 11:12:28;;;;;;;5.57;5.00;;;34.50;76.30;;;;;;5052095;28;20468;-88
2022/07/20 11:14:56;;;;;;;5.90;5.27;;;34.60;78.10;;;;;;5052333;28;20213;-88
2022/07/20 11:17:24;;;;;;;7.47;6.10;;;34.60;80.10;;;;;;5051970;28;20523;-90
2022/07/20 11:19:51;;;;;;;5.87;5.23;;;34.60;80.30;;;;;;5051760;28;20494;-89
2022/07/20 11:22:18;;;;;;;6.03;5.40;;;34.70;78.20;;;;;;5052423;28;20461;-90
2022/07/20 11:24:53;;;;;;;7.83;5.07;;;34.90;77.80;;;;;;5052147;28;20479;-88
2022/07/20 11:27:20;;;;;;;5.70;5.20;;;34.80;75.60;;;;;;5051770;28;20459;-87
2022/07/20 11:29:51;;;;;;;7.23;5.43;;;34.80;76.20;;;;;;5051729;28;20861;-89
2022/07/20 11:32:18;;;;;;;6.53;5.83;;;34.80;77.10;;;;;;5051522;28;20460;-88
2022/07/20 11:34:47;;;;;;;6.20;5.70;;;34.80;77.70;;;;;;5051716;28;20870;-90
2022/07/20 11:37:17;;;;;;;6.53;5.83;;;34.90;80.10;;;;;;5051699;28;20460;-89
2022/07/20 11:39:44;;;;;;;6.63;5.30;;;35.00;79.50;;;;;;5050843;28;20534;-91
2022/07/20 11:42:12;;;;;;;6.13;5.27;;;35.10;79.10;;;;;;5049979;28;20468;-87
2022/07/20 11:44:38;;;;;;;5.90;5.47;;;35.20;75.40;;;;;;5050188;28;20464;-89
2022/07/20 11:47:05;;;;;;;6.30;5.80;;;35.20;78.20;;;;;;5051091;28;20664;-87
2022/07/20 11:49:32;;;;;;;7.55;5.97;;;35.20;75.50;;;;;;5050959;28;20587;-88
2022/07/20 11:52:03;;;;;;;8.40;5.70;;;35.20;78.00;;;;;;5072151;28;20221;-89
2022/07/20 11:54:33;;;;;;;5.70;5.20;;;35.30;78.90;;;;;;5074822;28;20468;-88
2022/07/20 11:57:00;;;;;;;6.70;5.60;;;35.30;77.50;;;;;;5078689;28;20448;-90
2022/07/20 11:59:27;;;;;;;7.73;6.33;;;35.20;77.70;;;;;;5079461;28;20240;-90
2022/07/20 12:01:56;;;;;;;7.00;6.00;;;35.20;79.30;;;;;;5067711;28;20890;-88
2022/07/20 12:04:24;;;;;;;6.20;5.70;;;35.30;78.00;;;;;;5056486;28;20467;-88
2022/07/20 12:06:53;;;;;;;6.03;5.43;;;35.40;79.30;;;;;;5055412;28;20973;-89
2022/07/20 12:09:23;;;;;;;7.03;6.33;;;35.50;76.80;;;;;;5059967;28;20487;-90
2022/07/20 12:14:52;;;;;;;9.60;5.70;;;35.50;76.20;;;;;;5085324;27;20914;-72
2022/07/20 12:17:21;;;;;;;6.50;5.90;;;35.60;79.20;;;;;;5049295;28;20459;-74
2022/07/20 12:19:50;;;;;;;5.93;5.50;;;35.70;78.90;;;;;;5047136;28;20467;-71
2022/07/20 12:22:17;;;;;;;6.33;5.83;;;35.80;79.20;;;;;;5048486;28;20464;-74
2022/07/20 12:24:51;;;;;;;6.87;6.20;;;35.80;75.00;;;;;;5048141;28;20467;-75
2022/07/20 12:27:18;;;;;;;5.87;5.37;;;35.90;74.70;;;;;;5048920;28;20959;-75
2022/07/20 12:29:45;;;;;;;6.67;6.00;;;35.90;75.60;;;;;;5047342;28;20456;-75
2022/07/20 12:32:15;;;;;;;6.30;5.90;;;35.90;78.30;;;;;;5048598;28;20468;-75
2022/07/20 12:34:53;;;;;;;11.10;6.30;;;35.90;76.80;;;;;;5048127;28;20488;-74
2022/07/20 12:37:20;;;;;;;6.77;6.10;;;35.90;78.80;;;;;;5048501;28;20986;-74
2022/07/20 12:39:49;;;;;;;6.90;6.20;;;36.00;78.90;;;;;;5048008;28;20464;-73
2022/07/20 12:42:19;;;;;;;7.60;6.90;;;35.80;77.80;;;;;;5049371;28;20460;-74
2022/07/20 12:44:47;;;;;;;8.00;7.10;;;35.90;74.90;;;;;;5047304;28;20463;-74
2022/07/20 12:47:16;;;;;;;7.63;6.97;;;35.60;78.20;;;;;;5047005;28;20492;-73
2022/07/20 12:49:43;;;;;;;9.10;7.10;;;35.00;77.40;;;;;;5046575;28;20496;-73
2022/07/20 12:52:10;;;;;;;8.30;7.60;;;34.50;77.10;;;;;;5045501;28;20831;-73
2022/07/20 12:54:37;;;;;;;9.40;8.13;;;34.00;78.60;;;;;;5047513;28;21003;-71
2022/07/20 12:57:04;;;;;;;9.97;8.73;;;33.70;79.50;;;;;;5047664;28;20460;-72
2022/07/20 12:59:31;;;;;;;11.00;10.00;;;33.30;79.30;;;;;;5047256;28;20468;-71